createdAt,value
2022-09-22T00:00:09.885Z,13.35
2022-09-22T00:03:11.804Z,14.20
2022-09-22T00:06:15.276Z,13.32
2022-09-22T00:09:19.043Z,14.07
2022-09-22T00:12:22.023Z,15.33
2022-09-22T00:15:23.908Z,13.07
2022-09-22T00:18:26.025Z,14.68
2022-09-22T00:21:28.106Z,10.23
2022-09-22T00:24:31.299Z,11.27
2022-09-22T00:27:33.274Z,11.27
2022-09-22T00:30:39.219Z,9.15
2022-09-22T00:33:41.508Z,9.45
2022-09-22T00:36:43.862Z,9.50
2022-09-22T00:39:45.782Z,10.10
2022-09-22T00:42:47.774Z,10.30
2022-09-22T00:45:54.742Z,8.93
2022-09-22T00:48:59.307Z,9.07
2022-09-22T00:52:01.474Z,10.43
2022-09-22T00:55:06.526Z,9.85
2022-09-22T00:58:11.232Z,12.80
2022-09-22T01:01:15.197Z,12.52
2022-09-22T01:04:18.280Z,12.90
2022-09-22T01:07:21.855Z,9.85
2022-09-22T01:10:24.187Z,10.45
2022-09-22T01:13:28.587Z,9.53
2022-09-22T01:16:45.868Z,9.63
2022-09-22T01:19:50.548Z,11.80
2022-09-22T01:23:11.144Z,11.23
2022-09-22T01:26:19.177Z,13.20
2022-09-22T01:29:21.105Z,8.48
2022-09-22T01:32:25.792Z,9.80
2022-09-22T01:35:27.867Z,7.63
2022-09-22T01:38:50.036Z,7.40
2022-09-22T01:42:00.942Z,7.57
2022-09-22T01:45:10.132Z,9.13
2022-09-22T01:48:15.311Z,8.75
2022-09-22T01:51:24.542Z,7.95
2022-09-22T01:54:33.100Z,11.03
2022-09-22T01:57:50.040Z,10.02
2022-09-22T02:00:56.480Z,11.63
2022-09-22T02:04:02.170Z,8.30
2022-09-22T02:07:08.852Z,9.68
2022-09-22T02:10:12.465Z,7.25
2022-09-22T02:13:15.088Z,6.78
2022-09-22T02:16:18.802Z,8.07
2022-09-22T02:19:27.900Z,8.57
2022-09-22T02:22:32.239Z,6.82
2022-09-22T02:25:34.361Z,8.00
2022-09-22T02:28:38.747Z,8.02
2022-09-22T02:31:40.881Z,7.80
2022-09-22T02:34:46.150Z,6.35
2022-09-22T02:37:57.139Z,5.83
2022-09-22T02:41:08.245Z,8.48
2022-09-22T02:44:21.536Z,5.20
2022-09-22T02:47:27.296Z,7.27
2022-09-22T02:50:29.715Z,6.50
2022-09-22T02:53:33.352Z,7.32
2022-09-22T02:56:35.305Z,10.77
2022-09-22T02:59:37.242Z,13.27
2022-09-22T03:02:39.248Z,12.68
2022-09-22T03:05:41.258Z,12.38
2022-09-22T03:08:43.323Z,11.32
2022-09-22T03:11:45.286Z,10.63
2022-09-22T03:14:47.266Z,8.93
2022-09-22T03:17:49.249Z,7.57
2022-09-22T03:20:51.200Z,6.10
2022-09-22T03:23:53.160Z,8.97
2022-09-22T03:26:55.094Z,8.45
2022-09-22T03:29:56.992Z,6.85
2022-09-22T03:32:58.989Z,7.38
2022-09-22T03:36:01.013Z,8.75
2022-09-22T03:39:02.982Z,9.75
2022-09-22T03:42:05.221Z,9.20
2022-09-22T03:45:07.506Z,7.77
2022-09-22T03:48:09.608Z,7.30
2022-09-22T03:51:11.678Z,7.78
2022-09-22T03:54:14.076Z,9.00
2022-09-22T03:57:15.988Z,9.20
2022-09-22T04:00:18.017Z,9.93
2022-09-22T04:03:20.017Z,7.57
2022-09-22T04:06:21.948Z,7.35
2022-09-22T04:09:23.979Z,8.85
2022-09-22T04:12:25.926Z,10.95
2022-09-22T04:15:27.907Z,14.82
2022-09-22T04:18:30.075Z,11.30
2022-09-22T04:21:32.353Z,15.10
2022-09-22T04:24:34.271Z,17.35
2022-09-22T04:27:36.182Z,28.10
2022-09-22T04:30:38.205Z,24.45
2022-09-22T04:33:40.351Z,13.55
2022-09-22T04:36:42.312Z,10.13
2022-09-22T04:39:44.564Z,11.50
2022-09-22T04:42:46.917Z,17.92
2022-09-22T04:45:49.034Z,9.88
2022-09-22T04:48:51.116Z,9.10
2022-09-22T04:51:53.147Z,9.43
2022-09-22T04:54:55.515Z,10.50
2022-09-22T04:57:57.796Z,8.45
2022-09-22T05:01:04.063Z,7.00
2022-09-22T05:04:06.177Z,7.40
2022-09-22T05:07:08.200Z,5.80
2022-09-22T05:10:11.372Z,6.03
2022-09-22T05:13:13.742Z,7.95
2022-09-22T05:16:16.034Z,6.78
2022-09-22T05:19:18.228Z,10.18
2022-09-22T05:22:22.384Z,8.77
2022-09-22T05:25:24.780Z,7.28
2022-09-22T05:28:27.052Z,9.65
2022-09-22T05:31:29.139Z,9.30
2022-09-22T05:34:31.342Z,12.60
2022-09-22T05:37:33.397Z,13.55
2022-09-22T05:40:35.532Z,8.45
2022-09-22T05:43:37.588Z,7.75
2022-09-22T05:46:40.132Z,9.35
2022-09-22T05:49:42.578Z,6.43
2022-09-22T05:52:45.030Z,6.85
2022-09-22T05:55:47.137Z,6.53
2022-09-22T05:58:49.180Z,9.10
2022-09-22T06:01:53.953Z,8.63
2022-09-22T06:04:59.875Z,8.93
2022-09-22T06:08:04.499Z,9.30
2022-09-22T06:11:06.668Z,7.72
2022-09-22T06:14:08.815Z,7.07
2022-09-22T06:17:11.875Z,6.70
2022-09-22T06:20:14.027Z,10.13
2022-09-22T06:23:16.288Z,5.80
2022-09-22T06:26:18.385Z,7.45
2022-09-22T06:29:20.353Z,6.20
2022-09-22T06:32:22.505Z,9.13
2022-09-22T06:35:24.531Z,6.77
2022-09-22T06:38:26.672Z,5.53
2022-09-22T06:41:30.533Z,4.72
2022-09-22T06:44:37.605Z,6.30
2022-09-22T06:47:39.860Z,5.67
2022-09-22T06:50:47.693Z,7.93
2022-09-22T06:53:52.083Z,7.07
2022-09-22T06:56:54.396Z,5.75
2022-09-22T06:59:58.815Z,6.57
2022-09-22T07:03:05.620Z,5.77
2022-09-22T07:06:08.964Z,5.15
2022-09-22T07:09:12.370Z,11.38
2022-09-22T07:12:15.304Z,8.90
2022-09-22T07:15:17.348Z,4.47
2022-09-22T07:18:19.537Z,4.30
2022-09-22T07:21:24.162Z,4.38
2022-09-22T07:24:28.152Z,4.30
2022-09-22T07:27:30.342Z,4.07
2022-09-22T07:30:32.533Z,4.03
2022-09-22T07:33:35.177Z,4.18
2022-09-22T07:36:37.621Z,4.13
2022-09-22T07:39:39.992Z,6.55
2022-09-22T07:42:42.594Z,5.70
2022-09-22T07:45:54.592Z,5.20
2022-09-22T07:48:56.613Z,4.82
2022-09-22T07:51:59.193Z,6.28
2022-09-22T07:55:02.667Z,7.68
2022-09-22T07:58:05.422Z,4.40
2022-09-22T08:01:08.497Z,9.50
2022-09-22T08:04:16.809Z,5.18
2022-09-22T08:07:18.979Z,9.05
2022-09-22T08:10:21.573Z,6.93
2022-09-22T08:13:23.717Z,6.40
2022-09-22T08:16:28.363Z,8.57
2022-09-22T08:19:32.126Z,7.45
2022-09-22T08:22:34.553Z,6.22
2022-09-22T08:25:36.617Z,5.28
2022-09-22T08:28:38.642Z,6.03
2022-09-22T08:31:41.969Z,7.40
2022-09-22T08:34:44.892Z,8.98
2022-09-22T08:37:49.554Z,5.95
2022-09-22T08:41:03.503Z,6.93
2022-09-22T08:44:11.270Z,9.48
2022-09-22T08:47:17.109Z,5.00
2022-09-22T08:50:42.210Z,7.10
2022-09-22T08:53:48.758Z,7.10
2022-09-22T08:56:55.187Z,4.50
2022-09-22T09:00:11.577Z,5.68
2022-09-22T09:03:28.742Z,5.93
2022-09-22T09:06:51.048Z,8.98
2022-09-22T09:10:06.971Z,5.07
2022-09-22T09:13:27.677Z,4.43
2022-09-22T09:16:38.980Z,4.63
2022-09-22T09:19:45.925Z,4.77
2022-09-22T09:23:00.727Z,4.65
2022-09-22T09:26:05.612Z,7.10
2022-09-22T09:29:13.663Z,5.05
2022-09-22T09:32:25.898Z,3.42
2022-09-22T09:35:44.326Z,4.50
2022-09-22T09:38:50.703Z,6.70
2022-09-22T09:41:55.053Z,4.72
2022-09-22T09:45:02.661Z,4.47
2022-09-22T09:48:11.340Z,2.65
2022-09-22T09:51:14.350Z,2.27
2022-09-22T09:54:17.851Z,1.92
2022-09-22T09:57:20.751Z,1.63
2022-09-22T10:00:32.470Z,2.13
2022-09-22T10:03:36.091Z,1.83
2022-09-22T10:06:38.427Z,1.77
2022-09-22T10:09:40.992Z,7.32
2022-09-22T10:12:43.002Z,1.83
2022-09-22T10:15:59.879Z,2.38
2022-09-22T10:19:03.907Z,2.97
2022-09-22T10:22:16.641Z,2.57
2022-09-22T10:25:32.364Z,2.70
2022-09-22T10:28:36.511Z,4.63
2022-09-22T10:31:39.520Z,2.65
2022-09-22T10:37:52.719Z,2.13
2022-09-22T10:40:55.777Z,1.90
2022-09-22T10:44:03.156Z,1.75
2022-09-22T10:47:27.317Z,2.28
2022-09-22T10:50:51.047Z,2.70
2022-09-22T10:54:05.301Z,2.00
2022-09-22T10:57:16.139Z,1.10
2022-09-22T11:00:20.222Z,1.10
2022-09-22T11:03:40.713Z,2.05
2022-09-22T11:07:01.315Z,2.17
2022-09-22T11:10:47.411Z,2.17
2022-09-22T11:13:58.425Z,1.13
2022-09-22T11:17:03.249Z,3.30
2022-09-22T11:20:23.051Z,7.00
2022-09-22T11:23:25.199Z,6.05
2022-09-22T11:26:43.925Z,3.33
2022-09-22T11:29:56.244Z,1.40
2022-09-22T11:33:17.061Z,1.90
2022-09-22T11:36:33.201Z,1.70
2022-09-22T11:39:38.054Z,4.93
2022-09-22T11:42:40.127Z,3.30
2022-09-22T11:45:48.143Z,2.72
2022-09-22T11:49:13.301Z,2.72
2022-09-22T11:52:17.571Z,2.00
2022-09-22T11:55:29.578Z,2.10
2022-09-22T11:58:32.299Z,3.33
2022-09-22T12:01:37.604Z,2.55
2022-09-22T12:04:42.361Z,1.80
2022-09-22T12:07:47.819Z,1.65
2022-09-22T12:10:50.392Z,2.53
2022-09-22T12:13:53.230Z,2.50
2022-09-22T12:16:58.899Z,1.77
2022-09-22T12:20:01.213Z,1.67
2022-09-22T12:23:12.516Z,2.00
2022-09-22T12:26:28.394Z,1.58
2022-09-22T12:29:30.981Z,1.73
2022-09-22T12:32:36.809Z,1.52
2022-09-22T12:35:39.028Z,1.65
2022-09-22T12:38:41.663Z,2.33
2022-09-22T12:41:48.699Z,2.00
2022-09-22T12:44:50.627Z,2.37
2022-09-22T12:47:54.199Z,2.42
2022-09-22T12:51:30.129Z,1.75
2022-09-22T12:54:38.371Z,1.80
2022-09-22T12:57:50.522Z,1.65
2022-09-22T13:00:53.675Z,1.97
2022-09-22T13:04:04.794Z,1.83
2022-09-22T13:07:25.433Z,1.77
2022-09-22T13:10:27.577Z,1.63
2022-09-22T13:13:29.477Z,2.25
2022-09-22T13:16:33.515Z,2.70
2022-09-22T13:19:35.554Z,1.73
2022-09-22T13:22:37.608Z,1.60
2022-09-22T13:25:40.087Z,2.00
2022-09-22T13:28:42.566Z,1.55
2022-09-22T13:31:55.560Z,1.70
2022-09-22T13:34:57.623Z,3.30
2022-09-22T13:38:00.018Z,2.35
2022-09-22T13:41:02.680Z,2.35
2022-09-22T13:44:10.781Z,1.60
2022-09-22T13:47:20.303Z,1.70
2022-09-22T13:50:23.074Z,2.50
2022-09-22T13:53:25.213Z,5.00
2022-09-22T13:56:27.676Z,1.95
2022-09-22T13:59:33.067Z,3.15
2022-09-22T14:02:37.200Z,1.90
2022-09-22T14:05:49.858Z,2.17
2022-09-22T14:08:55.859Z,2.58
2022-09-22T14:11:58.380Z,2.30
2022-09-22T14:15:18.947Z,2.42
2022-09-22T14:18:27.232Z,2.63
2022-09-22T14:21:29.413Z,2.40
2022-09-22T14:24:33.356Z,2.00
2022-09-22T14:27:47.944Z,1.85
2022-09-22T14:30:50.417Z,2.10
2022-09-22T14:33:54.431Z,2.70
2022-09-22T14:36:57.162Z,3.70
2022-09-22T14:40:00.795Z,3.42
2022-09-22T14:43:09.157Z,2.20
2022-09-22T14:46:22.072Z,2.35
2022-09-22T14:49:44.663Z,4.40
2022-09-22T14:52:50.695Z,3.10
2022-09-22T14:55:54.649Z,2.47
2022-09-22T14:58:58.118Z,3.95
2022-09-22T15:02:19.077Z,2.03
2022-09-22T15:05:29.903Z,1.80
2022-09-22T15:08:32.298Z,2.13
2022-09-22T15:11:51.112Z,2.08
2022-09-22T15:14:58.751Z,2.03
2022-09-22T15:18:13.478Z,4.00
2022-09-22T15:21:15.522Z,3.40
2022-09-22T15:24:21.255Z,2.63
2022-09-22T15:27:23.283Z,2.30
2022-09-22T15:30:31.907Z,2.95
2022-09-22T15:33:33.872Z,2.03
2022-09-22T15:36:38.553Z,3.33
2022-09-22T15:39:40.525Z,6.22
2022-09-22T15:43:02.279Z,3.00
2022-09-22T15:46:06.150Z,2.75
2022-09-22T15:49:12.036Z,2.70
2022-09-22T15:52:13.987Z,6.23
2022-09-22T15:55:17.192Z,3.17
2022-09-22T15:58:20.557Z,3.47
2022-09-22T16:01:22.775Z,4.55
2022-09-22T16:04:27.480Z,3.20
2022-09-22T16:07:29.511Z,2.90
2022-09-22T16:10:32.456Z,3.83
2022-09-22T16:13:34.506Z,10.20
2022-09-22T16:16:36.570Z,4.30
2022-09-22T16:19:38.597Z,4.43
2022-09-22T16:22:41.305Z,7.00
2022-09-22T16:25:43.567Z,14.73
2022-09-22T16:28:45.554Z,13.90
2022-09-22T16:31:47.543Z,13.13
2022-09-22T16:34:49.604Z,5.18
2022-09-22T16:37:55.795Z,20.03
2022-09-22T16:41:01.302Z,97.30
2022-09-22T16:44:03.799Z,132.60
2022-09-22T16:47:05.896Z,134.70
2022-09-22T16:50:09.324Z,28.83
2022-09-22T16:53:11.991Z,19.70
2022-09-22T16:56:13.963Z,19.90
2022-09-22T16:59:17.055Z,20.77
2022-09-22T17:02:19.182Z,30.60
2022-09-22T17:05:21.187Z,33.55
2022-09-22T17:08:25.727Z,33.70
2022-09-22T17:11:34.528Z,29.77
2022-09-22T17:14:37.116Z,31.25
2022-09-22T17:17:40.435Z,36.30
2022-09-22T17:20:42.396Z,37.60
2022-09-22T17:23:44.334Z,32.23
2022-09-22T17:26:51.033Z,31.65
2022-09-22T17:29:52.986Z,28.77
2022-09-22T17:32:55.026Z,41.03
2022-09-22T17:36:00.755Z,28.70
2022-09-22T17:39:02.907Z,28.23
2022-09-22T17:42:04.922Z,32.53
2022-09-22T17:45:07.835Z,42.70
2022-09-22T17:48:28.553Z,33.38
2022-09-22T17:51:50.479Z,38.50
2022-09-22T17:55:08.026Z,38.97
2022-09-22T17:58:10.154Z,38.47
2022-09-22T18:01:12.105Z,31.83
2022-09-22T18:04:14.118Z,25.85
2022-09-22T18:07:17.957Z,25.37
2022-09-22T18:10:20.231Z,26.50
2022-09-22T18:13:22.209Z,36.60
2022-09-22T18:16:30.197Z,41.75
2022-09-22T18:19:33.954Z,40.27
2022-09-22T18:22:36.707Z,36.90
2022-09-22T18:25:38.667Z,40.25
2022-09-22T18:28:40.759Z,41.03
2022-09-22T18:31:43.283Z,51.33
2022-09-22T18:34:45.388Z,48.27
2022-09-22T18:37:47.407Z,49.95
2022-09-22T18:40:51.676Z,54.35
2022-09-22T18:43:54.416Z,50.45
2022-09-22T18:46:56.945Z,53.85
2022-09-22T18:49:59.285Z,49.73
2022-09-22T18:53:01.460Z,45.38
2022-09-22T18:56:19.452Z,44.63
2022-09-22T18:59:24.128Z,51.33
2022-09-22T19:02:26.213Z,76.63
2022-09-22T19:05:28.441Z,55.75
2022-09-22T19:08:30.445Z,42.85
2022-09-22T19:11:34.991Z,34.15
2022-09-22T19:14:39.117Z,40.03
2022-09-22T19:17:43.931Z,42.13
2022-09-22T19:20:45.951Z,45.67
2022-09-22T19:23:47.907Z,28.83
2022-09-22T19:26:55.477Z,22.73
2022-09-22T19:29:57.647Z,14.73
2022-09-22T19:32:59.622Z,15.13
2022-09-22T19:36:01.679Z,10.77
2022-09-22T19:39:04.866Z,18.27
2022-09-22T19:42:07.193Z,17.73
2022-09-22T19:45:10.049Z,18.60
2022-09-22T19:48:14.419Z,19.67
2022-09-22T19:51:16.396Z,45.53
2022-09-22T19:54:20.436Z,20.87
2022-09-22T19:57:22.368Z,18.77
2022-09-22T20:00:27.121Z,15.85
2022-09-22T20:03:29.158Z,17.50
2022-09-22T20:06:31.190Z,16.00
2022-09-22T20:09:33.105Z,13.13
2022-09-22T20:12:35.036Z,13.90
2022-09-22T20:15:39.025Z,11.45
2022-09-22T20:18:41.488Z,14.23
2022-09-22T20:21:43.904Z,7.67
2022-09-22T20:24:53.941Z,6.80
2022-09-22T20:27:56.247Z,9.50
2022-09-22T20:30:58.333Z,8.27
2022-09-22T20:34:00.387Z,8.03
2022-09-22T20:37:02.369Z,8.48
2022-09-22T20:40:07.289Z,7.47
2022-09-22T20:43:11.941Z,8.43
2022-09-22T20:46:13.933Z,7.03
2022-09-22T20:49:15.971Z,5.53
2022-09-22T20:52:19.815Z,8.27
2022-09-22T20:55:22.543Z,8.60
2022-09-22T20:58:24.536Z,10.87
2022-09-22T21:01:26.539Z,9.02
2022-09-22T21:04:29.238Z,9.80
2022-09-22T21:07:31.819Z,7.50
2022-09-22T21:10:35.139Z,6.30
2022-09-22T21:13:37.159Z,7.88
2022-09-22T21:16:39.572Z,6.28
2022-09-22T21:19:41.586Z,5.03
2022-09-22T21:22:44.468Z,5.67
2022-09-22T21:26:00.383Z,3.22
2022-09-22T21:29:02.342Z,4.50
2022-09-22T21:32:04.392Z,5.13
2022-09-22T21:35:06.635Z,3.43
2022-09-22T21:38:08.631Z,2.55
2022-09-22T21:41:11.692Z,3.50
2022-09-22T21:44:13.691Z,2.70
2022-09-22T21:47:15.655Z,2.43
2022-09-22T21:50:17.597Z,1.70
2022-09-22T21:53:20.388Z,3.17
2022-09-22T21:56:23.384Z,3.25
2022-09-22T21:59:25.376Z,1.77
2022-09-22T22:02:27.312Z,2.28
2022-09-22T22:05:30.239Z,1.90
2022-09-22T22:08:37.076Z,2.90
2022-09-22T22:11:40.463Z,3.00
2022-09-22T22:14:43.952Z,6.73
2022-09-22T22:17:45.871Z,3.97
2022-09-22T22:20:47.824Z,4.78
2022-09-22T22:23:53.890Z,4.45
2022-09-22T22:26:57.511Z,4.03
2022-09-22T22:29:59.410Z,4.35
2022-09-22T22:33:01.339Z,4.82
2022-09-22T22:36:03.869Z,4.03
2022-09-22T22:39:05.844Z,6.23
2022-09-22T22:42:07.915Z,4.13
2022-09-22T22:45:11.263Z,6.20
2022-09-22T22:48:14.125Z,7.03
2022-09-22T22:51:17.453Z,4.70
2022-09-22T22:54:19.350Z,5.25
2022-09-22T22:57:21.336Z,4.57
2022-09-22T23:00:23.288Z,4.20
2022-09-22T23:03:26.859Z,5.68
2022-09-22T23:06:34.500Z,5.50
2022-09-22T23:09:36.416Z,4.57
2022-09-22T23:12:41.320Z,3.10
2022-09-22T23:15:45.594Z,3.60
2022-09-22T23:18:48.045Z,3.97
2022-09-22T23:21:51.501Z,4.95
2022-09-22T23:24:53.981Z,7.37
2022-09-22T23:27:55.884Z,5.72
2022-09-22T23:31:14.522Z,6.35
2022-09-22T23:34:16.518Z,4.53
2022-09-22T23:37:18.707Z,4.90
2022-09-22T23:40:20.825Z,5.20
2022-09-22T23:43:23.343Z,5.45
2022-09-22T23:46:25.453Z,4.37
2022-09-22T23:49:27.461Z,5.47
2022-09-22T23:52:29.453Z,9.60
2022-09-22T23:55:32.991Z,7.10
2022-09-22T23:58:35.281Z,4.57
